aviador You're here:

KGRD Decoded Metar

GREENWOOD in SC, USA
Report Time2017-11-18 13:56:00
UTC Time2017-11-18 14:10:29
Flight Rules vfr VFR
WindCalm
Visibility9999 m
Phenomena:N/A
Clouds:N/A
Expected CloudBase > 400 ft AGL from Temp-Dew spread
CeilingNone
Temp08°C (ISA -6)
Dew Point07°C (93% RH)
AAT7.3°C
QNH1018 hPa
Density Alt-118 ft
Elevation607 ft
Report Wrong Elevation
Raw Report
METAR KGRD 181356Z AUTO 00000KT 10SM CLR 08/07 A3007 RMK AO2 SLP181
T00830067 $=

Extra information for KGRD:More info

Metar Taf Metar & Taf Last 4 Metars F.Rules Stats Wind Profile Meteogram Temp Stats Airport Information Weather charts Add Link Nearby VenuesMetar ALERT Operation Metar Decoded Social comments

AIRNAV info for KGRD